sensor_id;sensor_type;location;lat;lon;timestamp;P1;durP1;ratioP1;P2;durP2;ratioP2
20589;SDS011;10453;50.810;12.540;2023-02-15T00:00:26;25.83;;;15.00;;
20589;SDS011;10453;50.810;12.540;2023-02-15T00:04:43;30.48;;;17.10;;
20589;SDS011;10453;50.810;12.540;2023-02-15T00:09:03;33.00;;;16.73;;
20589;SDS011;10453;50.810;12.540;2023-02-15T00:13:20;26.37;;;14.90;;
20589;SDS011;10453;50.810;12.540;2023-02-15T00:17:38;26.60;;;13.68;;
20589;SDS011;10453;50.810;12.540;2023-02-15T00:21:55;23.77;;;13.27;;
20589;SDS011;10453;50.810;12.540;2023-02-15T00:26:12;25.00;;;13.67;;
20589;SDS011;10453;50.810;12.540;2023-02-15T00:30:29;29.02;;;13.43;;
20589;SDS011;10453;50.810;12.540;2023-02-15T00:34:47;21.83;;;13.07;;
20589;SDS011;10453;50.810;12.540;2023-02-15T00:39:04;21.67;;;12.63;;
20589;SDS011;10453;50.810;12.540;2023-02-15T00:43:22;25.33;;;13.45;;
20589;SDS011;10453;50.810;12.540;2023-02-15T00:47:39;21.40;;;12.80;;
20589;SDS011;10453;50.810;12.540;2023-02-15T00:51:57;22.00;;;12.10;;
20589;SDS011;10453;50.810;12.540;2023-02-15T00:56:14;22.60;;;12.57;;
20589;SDS011;10453;50.810;12.540;2023-02-15T01:00:31;27.10;;;12.23;;
20589;SDS011;10453;50.810;12.540;2023-02-15T01:04:48;22.47;;;12.17;;
20589;SDS011;10453;50.810;12.540;2023-02-15T01:09:05;23.27;;;12.40;;
20589;SDS011;10453;50.810;12.540;2023-02-15T01:13:23;21.02;;;12.13;;
20589;SDS011;10453;50.810;12.540;2023-02-15T01:17:40;24.65;;;14.07;;
20589;SDS011;10453;50.810;12.540;2023-02-15T01:21:57;27.67;;;13.77;;
20589;SDS011;10453;50.810;12.540;2023-02-15T01:26:14;22.98;;;13.02;;
20589;SDS011;10453;50.810;12.540;2023-02-15T01:30:32;26.90;;;13.38;;
20589;SDS011;10453;50.810;12.540;2023-02-15T01:34:49;22.43;;;13.40;;
20589;SDS011;10453;50.810;12.540;2023-02-15T01:39:07;24.52;;;12.75;;
20589;SDS011;10453;50.810;12.540;2023-02-15T01:43:37;21.43;;;12.43;;
20589;SDS011;10453;50.810;12.540;2023-02-15T01:52:20;21.02;;;11.90;;
20589;SDS011;10453;50.810;12.540;2023-02-15T01:56:38;21.33;;;11.32;;
20589;SDS011;10453;50.810;12.540;2023-02-15T02:00:58;21.42;;;11.57;;
20589;SDS011;10453;50.810;12.540;2023-02-15T02:05:17;24.75;;;11.80;;
20589;SDS011;10453;50.810;12.540;2023-02-15T02:09:34;19.17;;;10.97;;
20589;SDS011;10453;50.810;12.540;2023-02-15T02:13:52;20.95;;;11.30;;
20589;SDS011;10453;50.810;12.540;2023-02-15T02:32:50;17.65;;;10.27;;
20589;SDS011;10453;50.810;12.540;2023-02-15T02:46:52;20.23;;;10.52;;
20589;SDS011;10453;50.810;12.540;2023-02-15T02:51:16;18.25;;;10.52;;
20589;SDS011;10453;50.810;12.540;2023-02-15T02:55:39;20.17;;;11.07;;
20589;SDS011;10453;50.810;12.540;2023-02-15T03:00:02;18.13;;;10.35;;
20589;SDS011;10453;50.810;12.540;2023-02-15T03:04:22;20.05;;;10.35;;
20589;SDS011;10453;50.810;12.540;2023-02-15T03:08:47;18.02;;;9.75;;
20589;SDS011;10453;50.810;12.540;2023-02-15T03:13:08;19.10;;;9.70;;
20589;SDS011;10453;50.810;12.540;2023-02-15T03:17:26;17.07;;;9.70;;
20589;SDS011;10453;50.810;12.540;2023-02-15T03:21:49;18.00;;;9.40;;
20589;SDS011;10453;50.810;12.540;2023-02-15T03:26:20;15.23;;;8.57;;
20589;SDS011;10453;50.810;12.540;2023-02-15T03:30:40;15.80;;;9.38;;
20589;SDS011;10453;50.810;12.540;2023-02-15T03:35:01;18.55;;;9.25;;
20589;SDS011;10453;50.810;12.540;2023-02-15T03:39:24;20.25;;;9.38;;
20589;SDS011;10453;50.810;12.540;2023-02-15T03:43:55;14.45;;;8.05;;
20589;SDS011;10453;50.810;12.540;2023-02-15T03:48:16;15.48;;;8.73;;
20589;SDS011;10453;50.810;12.540;2023-02-15T03:52:35;15.18;;;8.07;;
20589;SDS011;10453;50.810;12.540;2023-02-15T03:56:53;17.23;;;8.65;;
20589;SDS011;10453;50.810;12.540;2023-02-15T04:01:33;21.50;;;9.43;;
20589;SDS011;10453;50.810;12.540;2023-02-15T04:06:00;16.95;;;8.43;;
20589;SDS011;10453;50.810;12.540;2023-02-15T04:10:19;18.67;;;8.95;;
20589;SDS011;10453;50.810;12.540;2023-02-15T04:14:55;13.43;;;7.68;;
20589;SDS011;10453;50.810;12.540;2023-02-15T04:19:31;14.77;;;9.07;;
20589;SDS011;10453;50.810;12.540;2023-02-15T04:24:07;12.57;;;7.35;;
20589;SDS011;10453;50.810;12.540;2023-02-15T04:28:43;14.20;;;7.38;;
20589;SDS011;10453;50.810;12.540;2023-02-15T04:33:00;15.70;;;8.17;;
20589;SDS011;10453;50.810;12.540;2023-02-15T04:37:18;12.53;;;7.50;;
20589;SDS011;10453;50.810;12.540;2023-02-15T04:41:35;14.57;;;7.53;;
20589;SDS011;10453;50.810;12.540;2023-02-15T04:45:53;15.88;;;7.45;;
20589;SDS011;10453;50.810;12.540;2023-02-15T04:50:10;14.33;;;7.30;;
20589;SDS011;10453;50.810;12.540;2023-02-15T04:54:28;12.25;;;7.18;;
20589;SDS011;10453;50.810;12.540;2023-02-15T04:58:45;13.20;;;7.47;;
20589;SDS011;10453;50.810;12.540;2023-02-15T05:03:03;11.65;;;6.72;;
20589;SDS011;10453;50.810;12.540;2023-02-15T05:07:20;13.07;;;6.53;;
20589;SDS011;10453;50.810;12.540;2023-02-15T05:11:37;17.53;;;7.53;;
20589;SDS011;10453;50.810;12.540;2023-02-15T05:15:54;12.98;;;7.68;;
20589;SDS011;10453;50.810;12.540;2023-02-15T05:20:12;12.70;;;7.70;;
20589;SDS011;10453;50.810;12.540;2023-02-15T05:24:29;11.77;;;6.80;;
20589;SDS011;10453;50.810;12.540;2023-02-15T05:29:05;14.30;;;7.10;;
20589;SDS011;10453;50.810;12.540;2023-02-15T05:33:22;14.70;;;7.28;;
20589;SDS011;10453;50.810;12.540;2023-02-15T05:37:39;15.27;;;8.43;;
20589;SDS011;10453;50.810;12.540;2023-02-15T05:41:59;12.63;;;6.97;;
20589;SDS011;10453;50.810;12.540;2023-02-15T05:46:16;16.17;;;7.50;;
20589;SDS011;10453;50.810;12.540;2023-02-15T05:50:34;14.30;;;7.13;;
20589;SDS011;10453;50.810;12.540;2023-02-15T05:54:51;14.90;;;7.03;;
20589;SDS011;10453;50.810;12.540;2023-02-15T05:59:08;13.97;;;7.10;;
20589;SDS011;10453;50.810;12.540;2023-02-15T06:03:25;11.90;;;6.27;;
20589;SDS011;10453;50.810;12.540;2023-02-15T06:07:45;13.73;;;7.22;;
20589;SDS011;10453;50.810;12.540;2023-02-15T06:12:02;11.80;;;7.20;;
20589;SDS011;10453;50.810;12.540;2023-02-15T06:16:19;14.17;;;7.83;;
20589;SDS011;10453;50.810;12.540;2023-02-15T06:20:36;14.13;;;8.27;;
20589;SDS011;10453;50.810;12.540;2023-02-15T06:24:53;15.03;;;8.90;;
20589;SDS011;10453;50.810;12.540;2023-02-15T06:29:10;15.43;;;8.73;;
20589;SDS011;10453;50.810;12.540;2023-02-15T06:33:28;16.03;;;7.73;;
20589;SDS011;10453;50.810;12.540;2023-02-15T06:37:47;14.68;;;7.82;;
20589;SDS011;10453;50.810;12.540;2023-02-15T06:46:22;17.17;;;8.77;;
20589;SDS011;10453;50.810;12.540;2023-02-15T06:50:40;14.82;;;6.18;;
20589;SDS011;10453;50.810;12.540;2023-02-15T06:54:57;13.13;;;7.25;;
20589;SDS011;10453;50.810;12.540;2023-02-15T06:59:14;20.92;;;8.85;;
20589;SDS011;10453;50.810;12.540;2023-02-15T07:03:31;17.47;;;8.37;;
20589;SDS011;10453;50.810;12.540;2023-02-15T07:07:49;18.15;;;8.88;;
20589;SDS011;10453;50.810;12.540;2023-02-15T07:12:07;18.30;;;8.75;;
20589;SDS011;10453;50.810;12.540;2023-02-15T07:16:44;14.10;;;7.63;;
20589;SDS011;10453;50.810;12.540;2023-02-15T07:21:01;11.93;;;6.73;;
20589;SDS011;10453;50.810;12.540;2023-02-15T07:25:18;14.40;;;8.50;;
20589;SDS011;10453;50.810;12.540;2023-02-15T07:29:36;11.27;;;6.00;;
20589;SDS011;10453;50.810;12.540;2023-02-15T07:33:53;10.43;;;6.15;;
20589;SDS011;10453;50.810;12.540;2023-02-15T07:38:10;8.77;;;4.43;;
20589;SDS011;10453;50.810;12.540;2023-02-15T07:42:27;15.43;;;7.37;;
20589;SDS011;10453;50.810;12.540;2023-02-15T07:46:46;11.73;;;6.82;;
20589;SDS011;10453;50.810;12.540;2023-02-15T07:51:04;9.70;;;5.87;;
20589;SDS011;10453;50.810;12.540;2023-02-15T07:55:23;11.95;;;6.90;;
20589;SDS011;10453;50.810;12.540;2023-02-15T07:59:41;14.48;;;8.00;;
20589;SDS011;10453;50.810;12.540;2023-02-15T08:03:58;13.20;;;7.18;;
20589;SDS011;10453;50.810;12.540;2023-02-15T08:08:15;11.65;;;7.65;;
20589;SDS011;10453;50.810;12.540;2023-02-15T08:12:47;11.05;;;6.50;;
20589;SDS011;10453;50.810;12.540;2023-02-15T08:17:04;17.75;;;7.82;;
20589;SDS011;10453;50.810;12.540;2023-02-15T08:21:22;12.73;;;6.57;;
20589;SDS011;10453;50.810;12.540;2023-02-15T08:25:40;11.77;;;7.68;;
20589;SDS011;10453;50.810;12.540;2023-02-15T08:29:57;12.13;;;7.55;;
20589;SDS011;10453;50.810;12.540;2023-02-15T08:34:16;13.48;;;7.78;;
20589;SDS011;10453;50.810;12.540;2023-02-15T08:38:35;10.52;;;7.30;;
20589;SDS011;10453;50.810;12.540;2023-02-15T08:42:52;10.13;;;6.33;;
20589;SDS011;10453;50.810;12.540;2023-02-15T08:47:09;9.13;;;6.10;;
20589;SDS011;10453;50.810;12.540;2023-02-15T08:51:27;9.23;;;5.75;;
20589;SDS011;10453;50.810;12.540;2023-02-15T08:55:55;8.57;;;5.35;;
20589;SDS011;10453;50.810;12.540;2023-02-15T09:00:13;11.77;;;6.75;;
20589;SDS011;10453;50.810;12.540;2023-02-15T09:04:31;9.03;;;6.40;;
20589;SDS011;10453;50.810;12.540;2023-02-15T09:08:48;8.13;;;5.13;;
20589;SDS011;10453;50.810;12.540;2023-02-15T09:13:06;9.48;;;5.10;;
20589;SDS011;10453;50.810;12.540;2023-02-15T09:17:23;9.32;;;4.90;;
20589;SDS011;10453;50.810;12.540;2023-02-15T09:21:41;9.80;;;4.93;;
20589;SDS011;10453;50.810;12.540;2023-02-15T09:26:01;8.07;;;5.40;;
20589;SDS011;10453;50.810;12.540;2023-02-15T09:30:19;11.15;;;5.95;;
20589;SDS011;10453;50.810;12.540;2023-02-15T09:34:37;8.50;;;6.95;;
20589;SDS011;10453;50.810;12.540;2023-02-15T09:43:22;13.48;;;6.60;;
20589;SDS011;10453;50.810;12.540;2023-02-15T09:48:03;10.57;;;6.00;;
20589;SDS011;10453;50.810;12.540;2023-02-15T09:52:39;8.05;;;6.40;;
20589;SDS011;10453;50.810;12.540;2023-02-15T09:57:26;8.70;;;6.38;;
20589;SDS011;10453;50.810;12.540;2023-02-15T10:01:58;16.23;;;7.13;;
20589;SDS011;10453;50.810;12.540;2023-02-15T10:07:00;13.50;;;7.15;;
20589;SDS011;10453;50.810;12.540;2023-02-15T10:29:54;8.23;;;5.72;;
20589;SDS011;10453;50.810;12.540;2023-02-15T10:34:25;7.80;;;4.55;;
20589;SDS011;10453;50.810;12.540;2023-02-15T10:57:24;4.83;;;2.93;;
20589;SDS011;10453;50.810;12.540;2023-02-15T11:02:01;3.70;;;2.42;;
20589;SDS011;10453;50.810;12.540;2023-02-15T11:06:39;3.50;;;1.93;;
20589;SDS011;10453;50.810;12.540;2023-02-15T11:11:06;3.20;;;1.60;;
20589;SDS011;10453;50.810;12.540;2023-02-15T11:15:34;3.25;;;1.70;;
20589;SDS011;10453;50.810;12.540;2023-02-15T11:20:02;3.35;;;1.70;;
20589;SDS011;10453;50.810;12.540;2023-02-15T11:24:21;2.40;;;1.85;;
20589;SDS011;10453;50.810;12.540;2023-02-15T11:28:47;3.80;;;1.92;;
20589;SDS011;10453;50.810;12.540;2023-02-15T11:33:27;3.63;;;1.67;;
20589;SDS011;10453;50.810;12.540;2023-02-15T11:38:01;2.70;;;1.42;;
20589;SDS011;10453;50.810;12.540;2023-02-15T11:42:29;1.83;;;1.50;;
20589;SDS011;10453;50.810;12.540;2023-02-15T11:46:48;4.25;;;2.25;;
20589;SDS011;10453;50.810;12.540;2023-02-15T11:51:08;2.90;;;1.92;;
20589;SDS011;10453;50.810;12.540;2023-02-15T11:55:30;2.45;;;1.63;;
20589;SDS011;10453;50.810;12.540;2023-02-15T11:59:52;2.85;;;1.60;;
20589;SDS011;10453;50.810;12.540;2023-02-15T12:04:30;3.53;;;2.10;;
20589;SDS011;10453;50.810;12.540;2023-02-15T12:09:13;4.30;;;2.13;;
20589;SDS011;10453;50.810;12.540;2023-02-15T12:13:53;2.75;;;2.20;;
20589;SDS011;10453;50.810;12.540;2023-02-15T12:18:24;2.80;;;2.50;;
20589;SDS011;10453;50.810;12.540;2023-02-15T12:22:59;3.22;;;2.60;;
20589;SDS011;10453;50.810;12.540;2023-02-15T12:27:24;3.78;;;2.47;;
20589;SDS011;10453;50.810;12.540;2023-02-15T12:31:47;4.95;;;2.30;;
20589;SDS011;10453;50.810;12.540;2023-02-15T12:36:51;2.92;;;2.05;;
20589;SDS011;10453;50.810;12.540;2023-02-15T12:41:01;2.53;;;2.20;;
20589;SDS011;10453;50.810;12.540;2023-02-15T12:45:22;3.42;;;2.40;;
20589;SDS011;10453;50.810;12.540;2023-02-15T12:49:40;4.28;;;3.08;;
20589;SDS011;10453;50.810;12.540;2023-02-15T12:54:15;8.85;;;4.40;;
20589;SDS011;10453;50.810;12.540;2023-02-15T12:58:40;4.35;;;3.13;;
20589;SDS011;10453;50.810;12.540;2023-02-15T13:02:58;4.63;;;2.67;;
20589;SDS011;10453;50.810;12.540;2023-02-15T13:07:16;4.25;;;3.08;;
20589;SDS011;10453;50.810;12.540;2023-02-15T13:11:34;4.57;;;3.70;;
20589;SDS011;10453;50.810;12.540;2023-02-15T13:15:55;3.25;;;2.55;;
20589;SDS011;10453;50.810;12.540;2023-02-15T13:20:22;3.90;;;3.13;;
20589;SDS011;10453;50.810;12.540;2023-02-15T13:24:42;4.60;;;3.08;;
20589;SDS011;10453;50.810;12.540;2023-02-15T13:29:17;3.03;;;2.72;;
20589;SDS011;10453;50.810;12.540;2023-02-15T13:33:38;5.65;;;2.35;;
20589;SDS011;10453;50.810;12.540;2023-02-15T13:38:14;2.75;;;2.30;;
20589;SDS011;10453;50.810;12.540;2023-02-15T13:42:56;5.07;;;2.80;;
20589;SDS011;10453;50.810;12.540;2023-02-15T13:51:48;5.95;;;3.33;;
20589;SDS011;10453;50.810;12.540;2023-02-15T13:56:37;5.85;;;2.80;;
20589;SDS011;10453;50.810;12.540;2023-02-15T14:01:07;4.65;;;3.00;;
20589;SDS011;10453;50.810;12.540;2023-02-15T14:10:20;5.53;;;3.20;;
20589;SDS011;10453;50.810;12.540;2023-02-15T14:19:49;3.47;;;2.88;;
20589;SDS011;10453;50.810;12.540;2023-02-15T14:29:05;4.80;;;3.10;;
20589;SDS011;10453;50.810;12.540;2023-02-15T14:33:32;5.22;;;2.88;;
20589;SDS011;10453;50.810;12.540;2023-02-15T14:42:30;7.93;;;4.60;;
20589;SDS011;10453;50.810;12.540;2023-02-15T14:47:10;6.13;;;3.47;;
20589;SDS011;10453;50.810;12.540;2023-02-15T14:56:05;5.30;;;3.22;;
20589;SDS011;10453;50.810;12.540;2023-02-15T15:00:31;4.40;;;3.30;;
20589;SDS011;10453;50.810;12.540;2023-02-15T15:04:59;4.63;;;3.10;;
20589;SDS011;10453;50.810;12.540;2023-02-15T15:09:26;4.68;;;3.30;;
20589;SDS011;10453;50.810;12.540;2023-02-15T15:13:59;6.72;;;3.25;;
20589;SDS011;10453;50.810;12.540;2023-02-15T15:27:44;6.07;;;4.10;;
20589;SDS011;10453;50.810;12.540;2023-02-15T15:32:05;4.85;;;3.63;;
20589;SDS011;10453;50.810;12.540;2023-02-15T15:41:47;4.30;;;3.45;;
20589;SDS011;10453;50.810;12.540;2023-02-15T15:46:04;6.95;;;3.70;;
20589;SDS011;10453;50.810;12.540;2023-02-15T15:50:41;7.38;;;3.97;;
20589;SDS011;10453;50.810;12.540;2023-02-15T15:55:03;5.30;;;4.17;;
20589;SDS011;10453;50.810;12.540;2023-02-15T15:59:31;9.18;;;6.45;;
20589;SDS011;10453;50.810;12.540;2023-02-15T16:03:50;9.95;;;6.28;;
20589;SDS011;10453;50.810;12.540;2023-02-15T16:08:08;6.22;;;4.25;;
20589;SDS011;10453;50.810;12.540;2023-02-15T16:12:27;6.95;;;4.82;;
20589;SDS011;10453;50.810;12.540;2023-02-15T16:16:46;26.40;;;16.90;;
20589;SDS011;10453;50.810;12.540;2023-02-15T16:21:12;9.73;;;6.60;;
20589;SDS011;10453;50.810;12.540;2023-02-15T16:25:37;5.38;;;4.35;;
20589;SDS011;10453;50.810;12.540;2023-02-15T16:34:55;5.65;;;4.00;;
20589;SDS011;10453;50.810;12.540;2023-02-15T16:39:17;9.13;;;4.90;;
20589;SDS011;10453;50.810;12.540;2023-02-15T16:43:36;12.02;;;7.07;;
20589;SDS011;10453;50.810;12.540;2023-02-15T16:47:56;23.25;;;14.45;;
20589;SDS011;10453;50.810;12.540;2023-02-15T16:52:15;20.95;;;12.07;;
20589;SDS011;10453;50.810;12.540;2023-02-15T16:56:37;14.73;;;8.10;;
20589;SDS011;10453;50.810;12.540;2023-02-15T17:00:57;11.93;;;6.55;;
20589;SDS011;10453;50.810;12.540;2023-02-15T17:05:17;13.20;;;8.02;;
20589;SDS011;10453;50.810;12.540;2023-02-15T17:09:37;11.23;;;6.50;;
20589;SDS011;10453;50.810;12.540;2023-02-15T17:22:55;7.78;;;6.03;;
20589;SDS011;10453;50.810;12.540;2023-02-15T17:27:20;9.47;;;5.93;;
20589;SDS011;10453;50.810;12.540;2023-02-15T17:31:40;11.73;;;6.25;;
20589;SDS011;10453;50.810;12.540;2023-02-15T17:36:16;10.47;;;6.33;;
20589;SDS011;10453;50.810;12.540;2023-02-15T17:40:38;12.25;;;6.75;;
20589;SDS011;10453;50.810;12.540;2023-02-15T17:44:55;11.88;;;7.22;;
20589;SDS011;10453;50.810;12.540;2023-02-15T17:49:14;10.13;;;6.85;;
20589;SDS011;10453;50.810;12.540;2023-02-15T17:53:41;13.33;;;8.37;;
20589;SDS011;10453;50.810;12.540;2023-02-15T17:58:19;13.35;;;9.13;;
20589;SDS011;10453;50.810;12.540;2023-02-15T18:02:41;11.30;;;7.65;;
20589;SDS011;10453;50.810;12.540;2023-02-15T18:07:18;13.00;;;8.65;;
20589;SDS011;10453;50.810;12.540;2023-02-15T18:11:56;16.40;;;10.43;;
20589;SDS011;10453;50.810;12.540;2023-02-15T18:16:14;14.27;;;10.38;;
20589;SDS011;10453;50.810;12.540;2023-02-15T18:20:35;14.77;;;9.45;;
20589;SDS011;10453;50.810;12.540;2023-02-15T18:24:53;13.43;;;9.93;;
20589;SDS011;10453;50.810;12.540;2023-02-15T18:29:10;18.33;;;12.02;;
20589;SDS011;10453;50.810;12.540;2023-02-15T18:33:32;17.13;;;11.27;;
20589;SDS011;10453;50.810;12.540;2023-02-15T18:37:51;19.88;;;10.45;;
20589;SDS011;10453;50.810;12.540;2023-02-15T18:42:18;19.48;;;12.32;;
20589;SDS011;10453;50.810;12.540;2023-02-15T18:46:39;22.88;;;13.52;;
20589;SDS011;10453;50.810;12.540;2023-02-15T18:50:57;19.10;;;11.88;;
20589;SDS011;10453;50.810;12.540;2023-02-15T18:55:18;19.92;;;12.63;;
20589;SDS011;10453;50.810;12.540;2023-02-15T18:59:37;16.55;;;10.85;;
20589;SDS011;10453;50.810;12.540;2023-02-15T19:03:54;15.98;;;10.93;;
20589;SDS011;10453;50.810;12.540;2023-02-15T19:08:15;16.42;;;10.93;;
20589;SDS011;10453;50.810;12.540;2023-02-15T19:12:34;18.02;;;11.50;;
20589;SDS011;10453;50.810;12.540;2023-02-15T19:16:52;18.17;;;11.50;;
20589;SDS011;10453;50.810;12.540;2023-02-15T19:21:13;18.40;;;11.57;;
20589;SDS011;10453;50.810;12.540;2023-02-15T19:25:34;18.05;;;9.43;;
20589;SDS011;10453;50.810;12.540;2023-02-15T19:29:55;17.40;;;10.32;;
20589;SDS011;10453;50.810;12.540;2023-02-15T19:34:15;15.68;;;10.18;;
20589;SDS011;10453;50.810;12.540;2023-02-15T19:38:34;20.52;;;11.43;;
20589;SDS011;10453;50.810;12.540;2023-02-15T19:42:52;16.95;;;10.75;;
20589;SDS011;10453;50.810;12.540;2023-02-15T19:47:13;19.15;;;11.25;;
20589;SDS011;10453;50.810;12.540;2023-02-15T19:51:30;20.02;;;11.60;;
20589;SDS011;10453;50.810;12.540;2023-02-15T19:55:50;21.27;;;12.30;;
20589;SDS011;10453;50.810;12.540;2023-02-15T20:00:14;18.88;;;11.07;;
20589;SDS011;10453;50.810;12.540;2023-02-15T20:04:38;20.85;;;12.25;;
20589;SDS011;10453;50.810;12.540;2023-02-15T20:08:56;20.77;;;12.75;;
20589;SDS011;10453;50.810;12.540;2023-02-15T20:13:14;20.15;;;13.07;;
20589;SDS011;10453;50.810;12.540;2023-02-15T20:17:32;22.35;;;13.88;;
20589;SDS011;10453;50.810;12.540;2023-02-15T20:21:50;25.15;;;13.68;;
20589;SDS011;10453;50.810;12.540;2023-02-15T20:26:14;23.15;;;13.07;;
20589;SDS011;10453;50.810;12.540;2023-02-15T20:30:34;25.38;;;14.50;;
20589;SDS011;10453;50.810;12.540;2023-02-15T20:34:51;32.63;;;19.08;;
20589;SDS011;10453;50.810;12.540;2023-02-15T20:39:13;29.58;;;17.02;;
20589;SDS011;10453;50.810;12.540;2023-02-15T20:43:33;19.73;;;13.30;;
20589;SDS011;10453;50.810;12.540;2023-02-15T20:47:50;22.67;;;13.57;;
20589;SDS011;10453;50.810;12.540;2023-02-15T20:52:18;20.33;;;12.70;;
20589;SDS011;10453;50.810;12.540;2023-02-15T20:56:36;23.23;;;11.88;;
20589;SDS011;10453;50.810;12.540;2023-02-15T21:00:54;22.37;;;12.50;;
20589;SDS011;10453;50.810;12.540;2023-02-15T21:05:15;19.98;;;12.25;;
20589;SDS011;10453;50.810;12.540;2023-02-15T21:09:39;20.45;;;12.23;;
20589;SDS011;10453;50.810;12.540;2023-02-15T21:13:57;21.25;;;12.27;;
20589;SDS011;10453;50.810;12.540;2023-02-15T21:18:27;21.83;;;12.30;;
20589;SDS011;10453;50.810;12.540;2023-02-15T21:22:45;20.73;;;12.90;;
20589;SDS011;10453;50.810;12.540;2023-02-15T21:27:05;20.42;;;13.60;;
20589;SDS011;10453;50.810;12.540;2023-02-15T21:31:25;23.70;;;13.18;;
20589;SDS011;10453;50.810;12.540;2023-02-15T21:35:46;20.25;;;12.52;;
20589;SDS011;10453;50.810;12.540;2023-02-15T21:40:15;20.30;;;11.98;;
20589;SDS011;10453;50.810;12.540;2023-02-15T21:44:34;21.80;;;13.25;;
20589;SDS011;10453;50.810;12.540;2023-02-15T21:49:10;21.90;;;13.25;;
20589;SDS011;10453;50.810;12.540;2023-02-15T21:53:31;20.48;;;11.60;;
20589;SDS011;10453;50.810;12.540;2023-02-15T21:57:49;18.75;;;11.98;;
20589;SDS011;10453;50.810;12.540;2023-02-15T22:06:53;22.77;;;13.75;;
20589;SDS011;10453;50.810;12.540;2023-02-15T22:11:12;21.95;;;13.95;;
20589;SDS011;10453;50.810;12.540;2023-02-15T22:15:38;21.13;;;12.10;;
20589;SDS011;10453;50.810;12.540;2023-02-15T22:19:55;21.65;;;12.48;;
20589;SDS011;10453;50.810;12.540;2023-02-15T22:24:13;19.27;;;12.07;;
20589;SDS011;10453;50.810;12.540;2023-02-15T22:28:31;21.98;;;12.60;;
20589;SDS011;10453;50.810;12.540;2023-02-15T22:32:53;19.92;;;12.18;;
20589;SDS011;10453;50.810;12.540;2023-02-15T22:37:12;20.33;;;12.65;;
20589;SDS011;10453;50.810;12.540;2023-02-15T22:41:29;20.27;;;12.82;;
20589;SDS011;10453;50.810;12.540;2023-02-15T22:45:47;21.05;;;12.20;;
20589;SDS011;10453;50.810;12.540;2023-02-15T22:50:13;20.10;;;12.20;;
20589;SDS011;10453;50.810;12.540;2023-02-15T22:54:34;20.50;;;12.50;;
20589;SDS011;10453;50.810;12.540;2023-02-15T22:58:53;21.08;;;12.35;;
20589;SDS011;10453;50.810;12.540;2023-02-15T23:03:22;24.77;;;13.25;;
20589;SDS011;10453;50.810;12.540;2023-02-15T23:07:41;20.00;;;13.23;;
20589;SDS011;10453;50.810;12.540;2023-02-15T23:11:58;20.60;;;12.75;;
20589;SDS011;10453;50.810;12.540;2023-02-15T23:16:15;21.27;;;12.88;;
20589;SDS011;10453;50.810;12.540;2023-02-15T23:24:51;20.60;;;12.73;;
20589;SDS011;10453;50.810;12.540;2023-02-15T23:29:19;22.83;;;14.30;;
20589;SDS011;10453;50.810;12.540;2023-02-15T23:33:38;22.13;;;13.05;;
20589;SDS011;10453;50.810;12.540;2023-02-15T23:37:55;24.52;;;13.35;;
20589;SDS011;10453;50.810;12.540;2023-02-15T23:42:13;24.48;;;13.25;;
20589;SDS011;10453;50.810;12.540;2023-02-15T23:46:40;24.27;;;13.07;;
20589;SDS011;10453;50.810;12.540;2023-02-15T23:51:00;23.85;;;14.30;;
20589;SDS011;10453;50.810;12.540;2023-02-15T23:55:18;22.15;;;13.10;;
20589;SDS011;10453;50.810;12.540;2023-02-15T23:59:36;23.60;;;14.38;;
